This is the latest recevied weather packets stored in our database for station/object N6XE-13. If no packets are shown the sender has not sent any weather packets the latest 10 day(s).
| Time | Temp. | Humidity | Pressure | Rain* | Wind** | Luminosity | Snow |
|---|---|---|---|---|---|---|---|
| 1778155206 | 12.78° C | 99% | 1020.6 hPa | 0 mm | - | - | - |
| 1778153407 | 13.33° C | 98% | 1020.6 hPa | 0 mm | - | - | - |
| 1778151606 | 13.89° C | 97% | 1020.5 hPa | 0 mm | - | - | - |
| 1778149806 | 13.89° C | 97% | 1020.6 hPa | 0 mm | - | - | - |
| 1778148005 | 13.89° C | 99% | 1020.6 hPa | 0 mm | - | - | - |
| 1778146205 | 14.44° C | 96% | 1020.7 hPa | 0 mm | - | - | - |
| 1778144405 | 14.44° C | 96% | 1020.8 hPa | 0 mm | - | - | - |
| 1778142605 | 15° C | 92% | 1020.8 hPa | 0 mm | - | - | - |
| 1778140805 | 15.56° C | 91% | 1020.7 hPa | 0 mm | - | - | - |
| 1778139005 | 15.56° C | 88% | 1020.6 hPa | 0 mm | - | - | - |
| 1778137205 | 16.11° C | 88% | 1020.5 hPa | 0 mm | - | - | - |
| 1778135405 | 16.11° C | 87% | 1020.5 hPa | 0 mm | - | - | - |
| 1778133605 | 17.22° C | 86% | 1020.6 hPa | 0 mm | - | - | - |
| 1778131806 | 17.78° C | 88% | 1020.7 hPa | 0 mm | - | - | - |
| 1778130006 | 18.33° C | 86% | 1020.5 hPa | 0 mm | - | - | - |
| 1778128206 | 19.44° C | 82% | 1020.4 hPa | 0 mm | - | - | - |
| 1778126406 | 20.56° C | 77% | 1020.1 hPa | 0 mm | - | - | - |
| 1778124606 | 22.22° C | 71% | 1019.8 hPa | 0 mm | - | - | - |
| 1778122806 | 23.33° C | 66% | 1019.4 hPa | 0 mm | - | - | - |
| 1778121006 | 25° C | 60% | 1019.2 hPa | 0 mm | - | - | - |
| 1778119205 | 25.56° C | 57% | 1019.3 hPa | 0 mm | - | - | - |
| 1778117406 | 26.11° C | 54% | 1019.1 hPa | 0 mm | - | - | - |
| 1778115605 | 26.67° C | 54% | 1019.2 hPa | 0 mm | - | - | - |
| 1778113806 | 26.67° C | 53% | 1019.3 hPa | 0 mm | - | - | - |
| 1778112005 | 26.67° C | 53% | 1019.4 hPa | 0 mm | - | - | - |
* Rain latest hour (hover to see other rain measurements)
** Current wind speed in m/s (hover to see current wind gust speed)